Stolt Flamenco — ZGAH7 — position and weather

sailwx.info

Track history (hours):
 
Tides and Currents Weather Stations Pressure Air Temp Water Temp Dewpoint Dewpoint Depression Visibility Wind Speed Wind Dir Waves Ship Positions

Stolt Flamenco

Last reported at 2017-Sep-20 00:06 UTC. Time now 2017-Sep-22 20:45 UTC.
Position N 29°30' W 094°52'.

Length 124 m; draft 8 m.

Type: Ship (hazmat cat D). MMSI: 319017600.

Date/timePositionNaut miles runAvg speedWind from/ knotsBaromVisibWave heightAir tempDewpointWater temp
2017-Sep-20 00:06N 29°30' W 094°52'211.8
2017-Sep-19 23:58N 29°31' W 094°53'511.7
2017-Sep-19 23:30N 29°35' W 094°56'611.2
2017-Sep-19 23:00N 29°41' W 094°59'4 7.8
2017-Sep-19 22:30N 29°44' W 095°02'4 0.2
2017-Sep-19 00:35N 29°45' W 095°06'1 6.2
2017-Sep-19 00:30N 29°46' W 095°05'4 8.8
2017-Sep-19 00:00N 29°43' W 095°01'511.0
2017-Sep-18 23:30N 29°38' W 094°58'713.2
2017-Sep-18 23:00N 29°33' W 094°54'22 0.5
2017-Sep-17 03:12N 29°19' W 094°35'0 0.1
2017-Sep-17 02:57N 29°19' W 094°35'0 0.1
2017-Sep-17 02:21N 29°19' W 094°35'0 0.2
2017-Sep-17 01:57N 29°19' W 094°35'0 0.0
2017-Sep-16 06:33N 29°19' W 094°35'0 0.1
2017-Sep-16 06:30N 29°19' W 094°35'0 0.1
2017-Sep-16 06:00N 29°19' W 094°35'  
2017-Sep-13 18:22N 19°36' W 095°54'513.8
2017-Sep-13 18:00N 19°31' W 095°55'713.6
2017-Sep-13 17:30N 19°24' W 095°57'713.1
2017-Sep-13 17:00N 19°18' W 095°58'612.0
2017-Sep-13 16:30N 19°12' W 096°01'510.1
2017-Sep-13 16:00N 19°12' W 096°06'2 4.2
2017-Sep-13 15:30N 19°13' W 096°08'0 0.0
2017-Sep-13 15:00N 19°13' W 096°08'0 0.0
2017-Sep-13 14:27N 19°13' W 096°08'0 0.0
2017-Sep-13 13:57N 19°13' W 096°08'0 0.0
2017-Sep-13 13:27N 19°13' W 096°08'0 0.0
2017-Sep-13 12:51N 19°13' W 096°08'0 0.0
2017-Sep-13 12:27N 19°13' W 096°08'0 0.0
2017-Sep-13 11:45N 19°13' W 096°08'0 0.0
2017-Sep-13 11:27N 19°13' W 096°08'0 0.0
2017-Sep-13 10:57N 19°13' W 096°08'0 0.0
2017-Sep-13 10:27N 19°13' W 096°08'0 0.0
2017-Sep-13 09:57N 19°13' W 096°08'0 0.0
2017-Sep-13 09:27N 19°13' W 096°08'0 0.0
2017-Sep-13 08:51N 19°13' W 096°08'0 0.0
2017-Sep-13 08:27N 19°13' W 096°08'0 0.0
2017-Sep-13 07:57N 19°13' W 096°08'0 0.0
2017-Sep-13 07:27N 19°13' W 096°08'0 0.0
2017-Sep-13 06:51N 19°13' W 096°08'0 0.0
2017-Sep-13 06:03N 19°13' W 096°08'0 0.0
2017-Sep-13 05:57N 19°13' W 096°08'0 0.0
2017-Sep-13 05:27N 19°13' W 096°08'0 0.0
2017-Sep-13 04:57N 19°13' W 096°08'0 0.0
2017-Sep-13 04:27N 19°13' W 096°08'0 0.0
2017-Sep-13 03:57N 19°13' W 096°08'0 0.0
2017-Sep-13 03:27N 19°13' W 096°08'0 0.0
2017-Sep-13 02:57N 19°13' W 096°08'0 0.0
2017-Sep-13 02:21N 19°13' W 096°08'0 0.0
2017-Sep-13 01:57N 19°13' W 096°08'0 0.0
2017-Sep-13 01:27N 19°13' W 096°08'0 0.0
2017-Sep-13 01:00N 19°13' W 096°08'0 0.0
2017-Sep-13 00:21N 19°13' W 096°08'0 0.0
2017-Sep-12 23:57N 19°13' W 096°08'0 0.0
2017-Sep-12 23:27N 19°13' W 096°08'0 0.0
2017-Sep-12 22:57N 19°13' W 096°08'0 0.0
2017-Sep-12 22:21N 19°13' W 096°08'0 0.0
2017-Sep-12 21:57N 19°13' W 096°08'0 0.0
2017-Sep-12 21:27N 19°13' W 096°08'0 0.0
2017-Sep-12 20:57N 19°13' W 096°08'0 0.0
2017-Sep-12 20:27N 19°13' W 096°08'0 0.0
2017-Sep-12 19:57N 19°13' W 096°08'0 0.0
2017-Sep-12 19:27N 19°13' W 096°08'0 0.0
2017-Sep-12 18:57N 19°13' W 096°08'0 0.0
2017-Sep-12 18:27N 19°13' W 096°08'0 0.0
2017-Sep-12 17:57N 19°13' W 096°08'0 0.0
2017-Sep-12 17:09N 19°13' W 096°08'0 0.0
2017-Sep-12 16:57N 19°13' W 096°08'0 0.0
2017-Sep-12 16:26N 19°13' W 096°08'0 0.0
2017-Sep-12 15:51N 19°13' W 096°08'0 0.0
2017-Sep-12 15:30N 19°13' W 096°08'1 2.4
2017-Sep-12 15:00N 19°12' W 096°07'4 8.4
2017-Sep-12 14:30N 19°11' W 096°03'2 3.6
2017-Sep-12 14:00N 19°10' W 096°01'2 4.1
2017-Sep-12 13:30N 19°08' W 096°01'0 0.2
2017-Sep-12 13:00N 19°08' W 096°01'0 0.1
2017-Sep-12 12:30N 19°08' W 096°01'0 0.1
2017-Sep-12 12:00N 19°08' W 096°01'0 0.0
2017-Sep-12 11:30N 19°08' W 096°01'0 0.0
2017-Sep-12 11:00N 19°08' W 096°01'0 0.0
2017-Sep-12 10:30N 19°08' W 096°01'0 0.0
2017-Sep-12 10:00N 19°08' W 096°01'0 0.0
2017-Sep-12 09:30N 19°08' W 096°01'0 0.0
2017-Sep-12 09:00N 19°08' W 096°01'0 0.0
2017-Sep-12 08:30N 19°08' W 096°01'0 0.0
2017-Sep-12 08:00N 19°08' W 096°01'0 0.0
2017-Sep-12 07:30N 19°08' W 096°01'0 0.0
2017-Sep-12 07:00N 19°08' W 096°01'0 0.0
2017-Sep-12 06:30N 19°08' W 096°01'0 0.0
2017-Sep-12 06:00N 19°08' W 096°01'0 0.0
2017-Sep-12 05:30N 19°08' W 096°01'0 0.0
2017-Sep-12 04:42N 19°08' W 096°01'0 0.0
2017-Sep-12 04:30N 19°08' W 096°01'0 0.0
2017-Sep-12 04:00N 19°08' W 096°01'0 0.0
2017-Sep-12 03:30N 19°08' W 096°01'0 0.0
2017-Sep-12 03:00N 19°08' W 096°01'0 0.0
2017-Sep-12 02:30N 19°08' W 096°01'0 0.1
2017-Sep-12 02:00N 19°08' W 096°01'4 8.5
2017-Sep-12 01:30N 19°12' W 096°01'510.2
2017-Sep-12 01:00N 19°17' W 095°60'5 9.3
2017-Sep-12 00:30N 19°22' W 095°60'713.4
2017-Sep-12 00:00N 19°28' W 095°59'  
Track history (hours):
 
Tides and Currents Weather Stations Pressure Air Temp Water Temp Dewpoint Dewpoint Depression Visibility Wind Speed Wind Dir Waves Ship Positions

Stolt Flamenco

Last reported at 2017-Sep-20 00:06 UTC. Time now 2017-Sep-22 20:45 UTC.
Position N 29°30' W 094°52'.

Length 124 m; draft 8 m.

Type: Ship (hazmat cat D). MMSI: 319017600.

Date/timePositionNaut miles runAvg speedWind from/ knotsBaromVisibWave heightAir tempDewpointWater temp
2017-Sep-20 00:06N 29°30' W 094°52'211.8
2017-Sep-19 23:58N 29°31' W 094°53'511.7
2017-Sep-19 23:30N 29°35' W 094°56'611.2
2017-Sep-19 23:00N 29°41' W 094°59'4 7.8
2017-Sep-19 22:30N 29°44' W 095°02'4 0.2
2017-Sep-19 00:35N 29°45' W 095°06'1 6.2
2017-Sep-19 00:30N 29°46' W 095°05'4 8.8
2017-Sep-19 00:00N 29°43' W 095°01'511.0
2017-Sep-18 23:30N 29°38' W 094°58'713.2
2017-Sep-18 23:00N 29°33' W 094°54'22 0.5
2017-Sep-17 03:12N 29°19' W 094°35'0 0.1
2017-Sep-17 02:57N 29°19' W 094°35'0 0.1
2017-Sep-17 02:21N 29°19' W 094°35'0 0.2
2017-Sep-17 01:57N 29°19' W 094°35'0 0.0
2017-Sep-16 06:33N 29°19' W 094°35'0 0.1
2017-Sep-16 06:30N 29°19' W 094°35'0 0.1
2017-Sep-16 06:00N 29°19' W 094°35'  
2017-Sep-13 18:22N 19°36' W 095°54'513.8
2017-Sep-13 18:00N 19°31' W 095°55'713.6
2017-Sep-13 17:30N 19°24' W 095°57'713.1
2017-Sep-13 17:00N 19°18' W 095°58'612.0
2017-Sep-13 16:30N 19°12' W 096°01'510.1
2017-Sep-13 16:00N 19°12' W 096°06'2 4.2
2017-Sep-13 15:30N 19°13' W 096°08'0 0.0
2017-Sep-13 15:00N 19°13' W 096°08'0 0.0
2017-Sep-13 14:27N 19°13' W 096°08'0 0.0
2017-Sep-13 13:57N 19°13' W 096°08'0 0.0
2017-Sep-13 13:27N 19°13' W 096°08'0 0.0
2017-Sep-13 12:51N 19°13' W 096°08'0 0.0
2017-Sep-13 12:27N 19°13' W 096°08'0 0.0
2017-Sep-13 11:45N 19°13' W 096°08'0 0.0
2017-Sep-13 11:27N 19°13' W 096°08'0 0.0
2017-Sep-13 10:57N 19°13' W 096°08'0 0.0
2017-Sep-13 10:27N 19°13' W 096°08'0 0.0
2017-Sep-13 09:57N 19°13' W 096°08'0 0.0
2017-Sep-13 09:27N 19°13' W 096°08'0 0.0
2017-Sep-13 08:51N 19°13' W 096°08'0 0.0
2017-Sep-13 08:27N 19°13' W 096°08'0 0.0
2017-Sep-13 07:57N 19°13' W 096°08'0 0.0
2017-Sep-13 07:27N 19°13' W 096°08'0 0.0
2017-Sep-13 06:51N 19°13' W 096°08'0 0.0
2017-Sep-13 06:03N 19°13' W 096°08'0 0.0
2017-Sep-13 05:57N 19°13' W 096°08'0 0.0
2017-Sep-13 05:27N 19°13' W 096°08'0 0.0
2017-Sep-13 04:57N 19°13' W 096°08'0 0.0
2017-Sep-13 04:27N 19°13' W 096°08'0 0.0
2017-Sep-13 03:57N 19°13' W 096°08'0 0.0
2017-Sep-13 03:27N 19°13' W 096°08'0 0.0
2017-Sep-13 02:57N 19°13' W 096°08'0 0.0
2017-Sep-13 02:21N 19°13' W 096°08'0 0.0
2017-Sep-13 01:57N 19°13' W 096°08'0 0.0
2017-Sep-13 01:27N 19°13' W 096°08'0 0.0
2017-Sep-13 01:00N 19°13' W 096°08'0 0.0
2017-Sep-13 00:21N 19°13' W 096°08'0 0.0
2017-Sep-12 23:57N 19°13' W 096°08'0 0.0
2017-Sep-12 23:27N 19°13' W 096°08'0 0.0
2017-Sep-12 22:57N 19°13' W 096°08'0 0.0
2017-Sep-12 22:21N 19°13' W 096°08'0 0.0
2017-Sep-12 21:57N 19°13' W 096°08'0 0.0
2017-Sep-12 21:27N 19°13' W 096°08'0 0.0
2017-Sep-12 20:57N 19°13' W 096°08'0 0.0
2017-Sep-12 20:27N 19°13' W 096°08'0 0.0
2017-Sep-12 19:57N 19°13' W 096°08'0 0.0
2017-Sep-12 19:27N 19°13' W 096°08'0 0.0
2017-Sep-12 18:57N 19°13' W 096°08'0 0.0
2017-Sep-12 18:27N 19°13' W 096°08'0 0.0
2017-Sep-12 17:57N 19°13' W 096°08'0 0.0
2017-Sep-12 17:09N 19°13' W 096°08'0 0.0
2017-Sep-12 16:57N 19°13' W 096°08'0 0.0
2017-Sep-12 16:26N 19°13' W 096°08'0 0.0
2017-Sep-12 15:51N 19°13' W 096°08'0 0.0
2017-Sep-12 15:30N 19°13' W 096°08'1 2.4
2017-Sep-12 15:00N 19°12' W 096°07'4 8.4
2017-Sep-12 14:30N 19°11' W 096°03'2 3.6
2017-Sep-12 14:00N 19°10' W 096°01'2 4.1
2017-Sep-12 13:30N 19°08' W 096°01'0 0.2
2017-Sep-12 13:00N 19°08' W 096°01'0 0.1
2017-Sep-12 12:30N 19°08' W 096°01'0 0.1
2017-Sep-12 12:00N 19°08' W 096°01'0 0.0
2017-Sep-12 11:30N 19°08' W 096°01'0 0.0
2017-Sep-12 11:00N 19°08' W 096°01'0 0.0
2017-Sep-12 10:30N 19°08' W 096°01'0 0.0
2017-Sep-12 10:00N 19°08' W 096°01'0 0.0
2017-Sep-12 09:30N 19°08' W 096°01'0 0.0
2017-Sep-12 09:00N 19°08' W 096°01'0 0.0
2017-Sep-12 08:30N 19°08' W 096°01'0 0.0
2017-Sep-12 08:00N 19°08' W 096°01'0 0.0
2017-Sep-12 07:30N 19°08' W 096°01'0 0.0
2017-Sep-12 07:00N 19°08' W 096°01'0 0.0
2017-Sep-12 06:30N 19°08' W 096°01'0 0.0
2017-Sep-12 06:00N 19°08' W 096°01'0 0.0
2017-Sep-12 05:30N 19°08' W 096°01'0 0.0
2017-Sep-12 04:42N 19°08' W 096°01'0 0.0
2017-Sep-12 04:30N 19°08' W 096°01'0 0.0
2017-Sep-12 04:00N 19°08' W 096°01'0 0.0
2017-Sep-12 03:30N 19°08' W 096°01'0 0.0
2017-Sep-12 03:00N 19°08' W 096°01'0 0.0
2017-Sep-12 02:30N 19°08' W 096°01'0 0.1
2017-Sep-12 02:00N 19°08' W 096°01'4 8.5
2017-Sep-12 01:30N 19°12' W 096°01'510.2
2017-Sep-12 01:00N 19°17' W 095°60'5 9.3
2017-Sep-12 00:30N 19°22' W 095°60'713.4
2017-Sep-12 00:00N 19°28' W 095°59'  

Dump ship's entire track history